createdAt,value
2019-01-31T00:03:46.795Z,2.00
2019-01-31T00:09:13.471Z,3.25
2019-01-31T00:14:44.473Z,3.00
2019-01-31T00:20:43.810Z,3.00
2019-01-31T00:26:36.128Z,1.00
2019-01-31T00:32:20.208Z,1.00
2019-01-31T00:37:38.791Z,1.60
2019-01-31T00:43:19.325Z,2.00
2019-01-31T00:48:58.001Z,3.00
2019-01-31T00:54:30.858Z,3.20
2019-01-31T01:00:15.429Z,2.00
2019-01-31T01:11:56.277Z,3.20
2019-01-31T01:17:20.847Z,2.80
2019-01-31T01:22:52.324Z,1.00
2019-01-31T01:28:42.418Z,1.50
2019-01-31T01:34:10.734Z,3.50
2019-01-31T01:39:30.823Z,1.50
2019-01-31T01:45:15.985Z,0.75
2019-01-31T01:51:13.018Z,2.80
2019-01-31T01:57:25.625Z,3.00
2019-01-31T02:03:28.667Z,2.00
2019-01-31T02:14:46.508Z,2.25
2019-01-31T02:20:18.502Z,1.00
2019-01-31T02:25:31.431Z,1.00
2019-01-31T02:30:53.679Z,1.00
2019-01-31T02:42:26.764Z,2.00
2019-01-31T02:47:56.228Z,2.75
2019-01-31T02:53:13.823Z,1.50
2019-01-31T02:59:04.846Z,1.00
2019-01-31T03:04:43.045Z,2.00
2019-01-31T03:10:28.415Z,1.00
2019-01-31T03:15:57.650Z,1.00
2019-01-31T03:22:02.747Z,1.00
2019-01-31T03:27:34.412Z,1.50
2019-01-31T03:33:36.620Z,2.00
2019-01-31T03:49:53.134Z,1.00
2019-01-31T03:55:24.911Z,0.80
2019-01-31T04:01:25.337Z,2.00
2019-01-31T04:06:33.496Z,0.50
2019-01-31T04:12:03.878Z,1.50
2019-01-31T04:17:10.391Z,1.75
2019-01-31T04:22:15.384Z,0.40
2019-01-31T04:27:21.920Z,0.00
2019-01-31T04:32:26.651Z,0.00
2019-01-31T04:37:31.213Z,1.00
2019-01-31T04:42:36.049Z,1.60
2019-01-31T04:47:40.207Z,0.50
2019-01-31T04:52:44.564Z,1.50
2019-01-31T04:57:48.858Z,2.00
2019-01-31T05:02:53.115Z,1.80
2019-01-31T05:07:57.429Z,1.80
2019-01-31T05:13:01.586Z,0.00
2019-01-31T05:18:38.430Z,0.75
2019-01-31T05:29:38.928Z,0.00
2019-01-31T05:41:23.681Z,1.00
2019-01-31T05:46:28.499Z,1.00
2019-01-31T05:51:33.073Z,1.75
2019-01-31T05:56:37.562Z,0.00
2019-01-31T06:01:42.344Z,0.00
2019-01-31T06:06:47.026Z,1.00
2019-01-31T06:11:53.723Z,0.00
2019-01-31T06:17:15.535Z,0.00
2019-01-31T06:22:20.313Z,0.00
2019-01-31T06:27:24.978Z,1.40
2019-01-31T06:32:29.690Z,1.00
2019-01-31T06:37:34.127Z,1.00
2019-01-31T06:42:38.638Z,0.00
2019-01-31T06:47:43.134Z,0.25
2019-01-31T06:52:47.594Z,0.40
2019-01-31T06:57:52.050Z,2.00
2019-01-31T07:02:56.458Z,1.00
2019-01-31T07:08:04.923Z,1.50
2019-01-31T07:13:09.353Z,1.00
2019-01-31T07:18:13.433Z,0.80
2019-01-31T07:23:17.674Z,0.40
2019-01-31T07:28:21.815Z,1.75
2019-01-31T07:38:43.269Z,2.00
2019-01-31T07:43:48.194Z,0.60
2019-01-31T07:48:52.319Z,2.00
2019-01-31T07:53:56.556Z,1.00
2019-01-31T07:59:00.833Z,8.50
2019-01-31T08:04:05.095Z,8.60
2019-01-31T08:09:10.325Z,5.00
2019-01-31T08:14:14.521Z,3.00
2019-01-31T08:19:18.966Z,2.20
2019-01-31T08:24:23.217Z,3.00
2019-01-31T08:29:27.344Z,2.80
2019-01-31T08:34:31.654Z,2.00
2019-01-31T08:39:35.926Z,3.00
2019-01-31T08:44:40.134Z,2.50
2019-01-31T08:49:44.428Z,2.25
2019-01-31T08:54:48.601Z,1.80
2019-01-31T08:59:52.828Z,1.00
2019-01-31T09:04:57.149Z,1.00
2019-01-31T09:10:01.414Z,1.50
2019-01-31T09:15:06.834Z,0.00
2019-01-31T09:20:12.689Z,1.00
2019-01-31T09:25:46.278Z,0.60
2019-01-31T09:31:40.522Z,2.00
2019-01-31T09:37:20.041Z,0.40
2019-01-31T09:42:45.017Z,1.60
2019-01-31T09:48:30.015Z,0.40
2019-01-31T09:54:17.319Z,0.00
2019-01-31T09:59:35.788Z,2.00
2019-01-31T10:05:24.585Z,1.00
2019-01-31T10:11:03.220Z,1.00
2019-01-31T10:16:38.231Z,1.40
2019-01-31T10:22:23.073Z,1.00
2019-01-31T10:28:04.206Z,5.40
2019-01-31T10:33:22.457Z,7.60
2019-01-31T10:38:58.028Z,4.00
2019-01-31T10:44:55.272Z,3.00
2019-01-31T10:50:54.385Z,3.25
2019-01-31T10:56:29.509Z,3.00
2019-01-31T11:02:42.558Z,1.75
2019-01-31T11:14:47.393Z,2.40
2019-01-31T11:20:19.347Z,2.00
2019-01-31T11:25:49.464Z,1.50
2019-01-31T11:31:10.183Z,2.00
2019-01-31T11:36:39.668Z,1.40
2019-01-31T11:42:06.774Z,1.00
2019-01-31T11:47:37.086Z,1.00
2019-01-31T11:53:02.055Z,0.60
2019-01-31T11:58:26.185Z,0.50
2019-01-31T12:03:30.410Z,1.00
2019-01-31T12:08:34.894Z,0.50
2019-01-31T12:13:39.040Z,1.60
2019-01-31T12:18:43.266Z,1.00
2019-01-31T12:23:47.648Z,0.60
2019-01-31T12:28:51.800Z,0.50
2019-01-31T12:33:55.952Z,1.00
2019-01-31T12:39:00.229Z,1.00
2019-01-31T12:44:04.842Z,1.25
2019-01-31T12:49:09.234Z,1.25
2019-01-31T12:54:14.622Z,1.00
2019-01-31T12:59:19.026Z,1.00
2019-01-31T13:04:23.503Z,0.80
2019-01-31T13:09:28.379Z,2.00
2019-01-31T13:14:33.222Z,0.75
2019-01-31T13:19:37.530Z,1.00
2019-01-31T13:24:41.846Z,0.75
2019-01-31T13:29:46.124Z,1.50
2019-01-31T13:34:50.441Z,0.00
2019-01-31T13:39:54.659Z,0.60
2019-01-31T13:44:58.808Z,0.60
2019-01-31T13:50:03.054Z,0.00
2019-01-31T13:55:27.305Z,0.80
2019-01-31T14:00:31.589Z,1.00
2019-01-31T14:05:35.807Z,1.00
2019-01-31T14:10:40.003Z,0.00
2019-01-31T14:15:44.465Z,0.80
2019-01-31T14:20:48.590Z,0.40
2019-01-31T14:25:52.766Z,0.00
2019-01-31T14:30:56.907Z,0.25
2019-01-31T14:36:02.372Z,1.00
2019-01-31T14:41:06.627Z,1.00
2019-01-31T14:46:13.628Z,0.50
2019-01-31T14:51:17.842Z,0.00
2019-01-31T14:56:21.987Z,0.00
2019-01-31T15:01:26.262Z,0.00
2019-01-31T15:06:30.797Z,0.00
2019-01-31T15:11:35.370Z,0.00
2019-01-31T15:16:39.498Z,0.50
2019-01-31T15:21:43.701Z,0.00
2019-01-31T15:26:47.794Z,0.75
2019-01-31T15:31:52.061Z,0.25
2019-01-31T15:36:56.283Z,0.20
2019-01-31T15:42:00.572Z,0.00
2019-01-31T15:47:04.868Z,0.00
2019-01-31T15:52:09.112Z,0.00
2019-01-31T15:57:16.648Z,1.00
2019-01-31T16:02:19.572Z,1.00
2019-01-31T16:07:23.699Z,0.00
2019-01-31T16:12:27.782Z,0.00
2019-01-31T16:17:31.994Z,0.00
2019-01-31T16:22:36.266Z,0.00
2019-01-31T16:27:40.735Z,0.00
2019-01-31T16:32:45.073Z,0.00
2019-01-31T16:37:50.108Z,0.40
2019-01-31T16:42:54.467Z,0.00
2019-01-31T16:47:58.702Z,1.00
2019-01-31T16:53:03.106Z,0.00
2019-01-31T16:58:08.200Z,0.00
2019-01-31T17:03:13.202Z,0.00
2019-01-31T17:08:17.566Z,3.40
2019-01-31T17:13:21.798Z,4.00
2019-01-31T17:18:26.434Z,4.25
2019-01-31T17:23:30.764Z,4.00
2019-01-31T17:28:34.893Z,4.25
2019-01-31T17:33:39.072Z,2.50
2019-01-31T17:38:43.480Z,3.00
2019-01-31T17:43:48.316Z,1.50
2019-01-31T17:48:52.593Z,3.00
2019-01-31T17:53:56.822Z,1.00
2019-01-31T17:59:02.675Z,3.00
2019-01-31T18:04:08.040Z,2.20
2019-01-31T18:09:13.178Z,2.00
2019-01-31T18:14:20.603Z,2.60
2019-01-31T18:19:25.573Z,2.00
2019-01-31T18:24:31.420Z,1.25
2019-01-31T18:29:42.919Z,1.60
2019-01-31T18:34:43.231Z,1.80
2019-01-31T18:39:50.273Z,0.60
2019-01-31T18:44:57.054Z,1.20
2019-01-31T18:50:03.301Z,1.00
2019-01-31T18:55:09.301Z,1.00
2019-01-31T19:00:23.542Z,1.80
2019-01-31T19:05:30.892Z,1.67
2019-01-31T19:10:43.480Z,2.00
2019-01-31T19:15:46.388Z,2.00
2019-01-31T19:20:52.069Z,1.67
2019-01-31T19:25:58.250Z,2.00
2019-01-31T19:31:04.825Z,2.25
2019-01-31T19:36:11.594Z,0.50
2019-01-31T19:41:17.963Z,1.50
2019-01-31T19:46:24.238Z,1.67
2019-01-31T19:51:28.419Z,2.20
2019-01-31T19:56:35.595Z,1.25
2019-01-31T20:01:41.015Z,1.00
2019-01-31T20:06:47.792Z,0.60
2019-01-31T20:11:55.018Z,1.00
2019-01-31T20:17:02.868Z,1.00
2019-01-31T20:22:09.667Z,1.00
2019-01-31T20:27:16.609Z,0.80
2019-01-31T20:32:23.305Z,1.33
2019-01-31T20:37:29.289Z,2.00
2019-01-31T20:42:35.816Z,1.00
2019-01-31T20:47:42.505Z,1.00
2019-01-31T20:52:49.303Z,1.00
2019-01-31T20:57:56.301Z,1.60
2019-01-31T21:03:02.885Z,2.00
2019-01-31T21:08:10.673Z,1.75
2019-01-31T21:13:16.752Z,1.00
2019-01-31T21:18:22.800Z,1.00
2019-01-31T21:23:27.730Z,2.00
2019-01-31T21:28:32.692Z,1.00
2019-01-31T21:33:37.502Z,0.00
2019-01-31T21:38:42.142Z,0.25
2019-01-31T21:43:46.288Z,0.20
2019-01-31T21:48:50.712Z,1.20
2019-01-31T21:53:55.234Z,1.25
2019-01-31T21:58:59.285Z,1.00
2019-01-31T22:04:03.490Z,2.00
2019-01-31T22:09:09.893Z,1.50
2019-01-31T22:14:14.096Z,1.50
2019-01-31T22:19:18.227Z,1.60
2019-01-31T22:24:22.528Z,1.00
2019-01-31T22:29:26.600Z,2.00
2019-01-31T22:34:30.632Z,1.00
2019-01-31T22:39:34.777Z,1.00
2019-01-31T22:44:38.906Z,1.75
2019-01-31T22:49:43.045Z,0.75
2019-01-31T23:01:24.377Z,2.20
2019-01-31T23:06:28.488Z,1.20
2019-01-31T23:11:32.691Z,1.00
2019-01-31T23:16:36.980Z,0.50
2019-01-31T23:21:41.107Z,1.00
2019-01-31T23:26:45.222Z,1.00
2019-01-31T23:31:49.395Z,1.00
2019-01-31T23:36:53.570Z,1.00
2019-01-31T23:41:57.754Z,2.00
2019-01-31T23:47:01.768Z,1.00
2019-01-31T23:52:06.079Z,1.00
2019-01-31T23:57:10.190Z,0.60
